sensor_id;sensor_type;location;lat;lon;timestamp;temperature;humidity
7518;DHT22;3800;48.922;9.444;2023-12-28T00:00:11;1.80;99.90
7518;DHT22;3800;48.922;9.444;2023-12-28T00:02:41;1.80;99.90
7518;DHT22;3800;48.922;9.444;2023-12-28T00:05:10;1.80;99.90
7518;DHT22;3800;48.922;9.444;2023-12-28T00:07:38;1.70;99.90
7518;DHT22;3800;48.922;9.444;2023-12-28T00:10:07;1.80;99.90
7518;DHT22;3800;48.922;9.444;2023-12-28T00:12:35;1.80;99.90
7518;DHT22;3800;48.922;9.444;2023-12-28T00:15:04;1.90;99.90
7518;DHT22;3800;48.922;9.444;2023-12-28T00:17:33;2.00;99.90
7518;DHT22;3800;48.922;9.444;2023-12-28T00:20:01;2.00;99.90
7518;DHT22;3800;48.922;9.444;2023-12-28T00:22:29;2.00;99.90
7518;DHT22;3800;48.922;9.444;2023-12-28T00:24:58;2.10;99.90
7518;DHT22;3800;48.922;9.444;2023-12-28T00:27:28;2.10;99.90
7518;DHT22;3800;48.922;9.444;2023-12-28T00:29:56;2.10;99.90
7518;DHT22;3800;48.922;9.444;2023-12-28T00:32:26;2.10;99.90
7518;DHT22;3800;48.922;9.444;2023-12-28T00:34:54;2.10;99.90
7518;DHT22;3800;48.922;9.444;2023-12-28T00:37:22;2.10;99.90
7518;DHT22;3800;48.922;9.444;2023-12-28T00:39:51;2.20;99.90
7518;DHT22;3800;48.922;9.444;2023-12-28T00:42:19;2.30;99.90
7518;DHT22;3800;48.922;9.444;2023-12-28T00:44:48;2.30;99.90
7518;DHT22;3800;48.922;9.444;2023-12-28T00:47:17;2.40;99.90
7518;DHT22;3800;48.922;9.444;2023-12-28T00:49:45;2.50;99.90
7518;DHT22;3800;48.922;9.444;2023-12-28T00:52:15;2.60;99.90
7518;DHT22;3800;48.922;9.444;2023-12-28T00:54:44;2.60;99.90
7518;DHT22;3800;48.922;9.444;2023-12-28T00:57:12;2.60;99.90
7518;DHT22;3800;48.922;9.444;2023-12-28T00:59:41;2.60;99.90
7518;DHT22;3800;48.922;9.444;2023-12-28T01:02:09;2.60;99.90
7518;DHT22;3800;48.922;9.444;2023-12-28T01:04:38;2.50;99.90
7518;DHT22;3800;48.922;9.444;2023-12-28T01:07:07;2.50;99.90
7518;DHT22;3800;48.922;9.444;2023-12-28T01:09:35;2.50;99.90
7518;DHT22;3800;48.922;9.444;2023-12-28T01:12:05;2.50;99.90
7518;DHT22;3800;48.922;9.444;2023-12-28T01:14:34;2.40;99.90
7518;DHT22;3800;48.922;9.444;2023-12-28T01:17:03;2.40;99.90
7518;DHT22;3800;48.922;9.444;2023-12-28T01:19:32;2.30;99.90
7518;DHT22;3800;48.922;9.444;2023-12-28T01:22:00;2.30;99.90
7518;DHT22;3800;48.922;9.444;2023-12-28T01:24:29;2.30;99.90
7518;DHT22;3800;48.922;9.444;2023-12-28T01:26:57;2.30;99.90
7518;DHT22;3800;48.922;9.444;2023-12-28T01:29:25;2.40;99.90
7518;DHT22;3800;48.922;9.444;2023-12-28T01:31:54;2.40;99.90
7518;DHT22;3800;48.922;9.444;2023-12-28T01:34:23;2.40;99.90
7518;DHT22;3800;48.922;9.444;2023-12-28T01:36:51;2.40;99.90
7518;DHT22;3800;48.922;9.444;2023-12-28T01:39:19;2.50;99.90
7518;DHT22;3800;48.922;9.444;2023-12-28T01:41:48;2.60;99.90
7518;DHT22;3800;48.922;9.444;2023-12-28T01:44:16;2.80;99.90
7518;DHT22;3800;48.922;9.444;2023-12-28T01:46:45;2.90;99.90
7518;DHT22;3800;48.922;9.444;2023-12-28T01:49:13;3.20;99.90
7518;DHT22;3800;48.922;9.444;2023-12-28T01:51:42;3.50;99.90
7518;DHT22;3800;48.922;9.444;2023-12-28T01:54:10;3.90;99.90
7518;DHT22;3800;48.922;9.444;2023-12-28T01:56:38;4.30;99.90
7518;DHT22;3800;48.922;9.444;2023-12-28T01:59:07;4.60;99.90
7518;DHT22;3800;48.922;9.444;2023-12-28T02:01:35;4.90;99.90
7518;DHT22;3800;48.922;9.444;2023-12-28T02:04:04;5.10;99.90
7518;DHT22;3800;48.922;9.444;2023-12-28T02:06:32;5.20;99.90
7518;DHT22;3800;48.922;9.444;2023-12-28T02:09:01;5.20;99.90
7518;DHT22;3800;48.922;9.444;2023-12-28T02:11:30;5.10;99.90
7518;DHT22;3800;48.922;9.444;2023-12-28T02:13:58;5.00;99.90
7518;DHT22;3800;48.922;9.444;2023-12-28T02:16:31;4.90;99.90
7518;DHT22;3800;48.922;9.444;2023-12-28T02:18:58;4.90;99.90
7518;DHT22;3800;48.922;9.444;2023-12-28T02:21:26;4.90;99.90
7518;DHT22;3800;48.922;9.444;2023-12-28T02:23:54;4.80;99.90
7518;DHT22;3800;48.922;9.444;2023-12-28T02:26:22;4.80;99.90
7518;DHT22;3800;48.922;9.444;2023-12-28T02:28:51;4.70;99.90
7518;DHT22;3800;48.922;9.444;2023-12-28T02:31:21;4.60;99.90
7518;DHT22;3800;48.922;9.444;2023-12-28T02:33:58;4.60;99.90
7518;DHT22;3800;48.922;9.444;2023-12-28T02:36:23;4.50;99.90
7518;DHT22;3800;48.922;9.444;2023-12-28T02:38:51;4.50;99.90
7518;DHT22;3800;48.922;9.444;2023-12-28T02:41:20;4.60;99.90
7518;DHT22;3800;48.922;9.444;2023-12-28T02:43:50;4.60;99.90
7518;DHT22;3800;48.922;9.444;2023-12-28T02:46:17;4.70;99.90
7518;DHT22;3800;48.922;9.444;2023-12-28T02:48:46;4.70;99.90
7518;DHT22;3800;48.922;9.444;2023-12-28T02:51:20;4.70;99.90
7518;DHT22;3800;48.922;9.444;2023-12-28T02:53:49;4.70;99.90
7518;DHT22;3800;48.922;9.444;2023-12-28T02:56:17;4.70;99.90
7518;DHT22;3800;48.922;9.444;2023-12-28T02:58:46;4.70;99.90
7518;DHT22;3800;48.922;9.444;2023-12-28T03:01:14;4.70;99.90
7518;DHT22;3800;48.922;9.444;2023-12-28T03:03:42;4.60;99.90
7518;DHT22;3800;48.922;9.444;2023-12-28T03:06:10;4.50;99.90
7518;DHT22;3800;48.922;9.444;2023-12-28T03:08:39;4.40;99.90
7518;DHT22;3800;48.922;9.444;2023-12-28T03:11:07;4.40;99.90
7518;DHT22;3800;48.922;9.444;2023-12-28T03:13:35;4.40;99.90
7518;DHT22;3800;48.922;9.444;2023-12-28T03:16:05;4.40;99.90
7518;DHT22;3800;48.922;9.444;2023-12-28T03:18:33;4.50;99.90
7518;DHT22;3800;48.922;9.444;2023-12-28T03:21:01;4.50;99.90
7518;DHT22;3800;48.922;9.444;2023-12-28T03:23:30;4.60;99.90
7518;DHT22;3800;48.922;9.444;2023-12-28T03:26:00;4.70;99.90
7518;DHT22;3800;48.922;9.444;2023-12-28T03:28:26;4.80;99.90
7518;DHT22;3800;48.922;9.444;2023-12-28T03:30:55;4.90;99.90
7518;DHT22;3800;48.922;9.444;2023-12-28T03:33:26;4.90;99.90
7518;DHT22;3800;48.922;9.444;2023-12-28T03:35:54;5.00;99.90
7518;DHT22;3800;48.922;9.444;2023-12-28T03:38:22;5.10;99.90
7518;DHT22;3800;48.922;9.444;2023-12-28T03:40:51;5.20;99.90
7518;DHT22;3800;48.922;9.444;2023-12-28T03:43:19;5.30;99.90
7518;DHT22;3800;48.922;9.444;2023-12-28T03:45:47;5.40;99.90
7518;DHT22;3800;48.922;9.444;2023-12-28T03:48:17;5.50;99.90
7518;DHT22;3800;48.922;9.444;2023-12-28T03:50:45;5.50;99.90
7518;DHT22;3800;48.922;9.444;2023-12-28T03:53:14;5.70;99.90
7518;DHT22;3800;48.922;9.444;2023-12-28T03:55:42;5.90;99.90
7518;DHT22;3800;48.922;9.444;2023-12-28T03:58:11;6.20;99.90
7518;DHT22;3800;48.922;9.444;2023-12-28T04:00:39;6.20;99.90
7518;DHT22;3800;48.922;9.444;2023-12-28T04:03:08;6.40;99.90
7518;DHT22;3800;48.922;9.444;2023-12-28T04:05:36;6.40;99.90
7518;DHT22;3800;48.922;9.444;2023-12-28T04:08:04;6.50;99.90
7518;DHT22;3800;48.922;9.444;2023-12-28T04:10:33;6.70;99.90
7518;DHT22;3800;48.922;9.444;2023-12-28T04:13:01;6.80;99.90
7518;DHT22;3800;48.922;9.444;2023-12-28T04:15:29;6.90;99.90
7518;DHT22;3800;48.922;9.444;2023-12-28T04:17:58;7.00;99.90
7518;DHT22;3800;48.922;9.444;2023-12-28T04:20:27;7.00;99.90
7518;DHT22;3800;48.922;9.444;2023-12-28T04:22:55;7.10;99.90
7518;DHT22;3800;48.922;9.444;2023-12-28T04:25:23;7.20;99.90
7518;DHT22;3800;48.922;9.444;2023-12-28T04:27:51;7.20;99.90
7518;DHT22;3800;48.922;9.444;2023-12-28T04:30:20;7.30;99.90
7518;DHT22;3800;48.922;9.444;2023-12-28T04:32:49;7.30;99.90
7518;DHT22;3800;48.922;9.444;2023-12-28T04:35:17;7.40;99.90
7518;DHT22;3800;48.922;9.444;2023-12-28T04:37:46;7.40;99.90
7518;DHT22;3800;48.922;9.444;2023-12-28T04:40:16;7.60;99.90
7518;DHT22;3800;48.922;9.444;2023-12-28T04:42:44;7.70;99.90
7518;DHT22;3800;48.922;9.444;2023-12-28T04:45:13;7.90;99.90
7518;DHT22;3800;48.922;9.444;2023-12-28T04:47:41;7.90;99.90
7518;DHT22;3800;48.922;9.444;2023-12-28T04:50:10;8.10;99.90
7518;DHT22;3800;48.922;9.444;2023-12-28T04:52:39;8.00;99.90
7518;DHT22;3800;48.922;9.444;2023-12-28T04:55:08;8.10;99.90
7518;DHT22;3800;48.922;9.444;2023-12-28T04:57:37;8.20;99.90
7518;DHT22;3800;48.922;9.444;2023-12-28T05:00:07;8.30;99.90
7518;DHT22;3800;48.922;9.444;2023-12-28T05:02:37;8.40;99.90
7518;DHT22;3800;48.922;9.444;2023-12-28T05:05:05;8.60;99.90
7518;DHT22;3800;48.922;9.444;2023-12-28T05:07:34;8.70;99.90
7518;DHT22;3800;48.922;9.444;2023-12-28T05:10:04;8.80;99.90
7518;DHT22;3800;48.922;9.444;2023-12-28T05:12:33;8.80;99.90
7518;DHT22;3800;48.922;9.444;2023-12-28T05:15:01;8.70;99.90
7518;DHT22;3800;48.922;9.444;2023-12-28T05:17:30;8.70;99.90
7518;DHT22;3800;48.922;9.444;2023-12-28T05:19:58;8.60;99.90
7518;DHT22;3800;48.922;9.444;2023-12-28T05:22:26;8.80;99.90
7518;DHT22;3800;48.922;9.444;2023-12-28T05:24:55;8.70;99.90
7518;DHT22;3800;48.922;9.444;2023-12-28T05:27:23;8.70;99.90
7518;DHT22;3800;48.922;9.444;2023-12-28T05:29:51;8.70;99.90
7518;DHT22;3800;48.922;9.444;2023-12-28T05:32:19;8.70;99.90
7518;DHT22;3800;48.922;9.444;2023-12-28T05:34:48;8.70;99.90
7518;DHT22;3800;48.922;9.444;2023-12-28T05:37:16;8.70;99.90
7518;DHT22;3800;48.922;9.444;2023-12-28T05:39:44;8.70;99.90
7518;DHT22;3800;48.922;9.444;2023-12-28T05:42:12;8.80;99.90
7518;DHT22;3800;48.922;9.444;2023-12-28T05:44:41;8.80;99.90
7518;DHT22;3800;48.922;9.444;2023-12-28T05:47:09;8.70;99.90
7518;DHT22;3800;48.922;9.444;2023-12-28T05:49:38;8.70;99.90
7518;DHT22;3800;48.922;9.444;2023-12-28T05:52:07;8.70;99.90
7518;DHT22;3800;48.922;9.444;2023-12-28T05:54:36;8.80;99.90
7518;DHT22;3800;48.922;9.444;2023-12-28T05:57:05;8.80;99.90
7518;DHT22;3800;48.922;9.444;2023-12-28T05:59:33;8.80;99.90
7518;DHT22;3800;48.922;9.444;2023-12-28T06:02:01;8.80;99.90
7518;DHT22;3800;48.922;9.444;2023-12-28T06:04:30;8.90;99.90
7518;DHT22;3800;48.922;9.444;2023-12-28T06:06:59;9.00;99.90
7518;DHT22;3800;48.922;9.444;2023-12-28T06:09:27;9.10;99.90
7518;DHT22;3800;48.922;9.444;2023-12-28T06:11:56;9.10;99.90
7518;DHT22;3800;48.922;9.444;2023-12-28T06:14:25;9.10;99.90
7518;DHT22;3800;48.922;9.444;2023-12-28T06:16:54;9.10;99.90
7518;DHT22;3800;48.922;9.444;2023-12-28T06:19:22;9.20;99.90
7518;DHT22;3800;48.922;9.444;2023-12-28T06:21:50;9.20;99.90
7518;DHT22;3800;48.922;9.444;2023-12-28T06:24:18;9.10;99.90
7518;DHT22;3800;48.922;9.444;2023-12-28T06:26:47;9.00;99.90
7518;DHT22;3800;48.922;9.444;2023-12-28T06:29:15;8.90;99.90
7518;DHT22;3800;48.922;9.444;2023-12-28T06:31:43;8.70;99.90
7518;DHT22;3800;48.922;9.444;2023-12-28T06:34:11;8.60;99.90
7518;DHT22;3800;48.922;9.444;2023-12-28T06:36:40;8.50;99.90
7518;DHT22;3800;48.922;9.444;2023-12-28T06:39:08;8.50;99.90
7518;DHT22;3800;48.922;9.444;2023-12-28T06:41:36;8.40;99.90
7518;DHT22;3800;48.922;9.444;2023-12-28T06:44:05;8.30;99.90
7518;DHT22;3800;48.922;9.444;2023-12-28T06:46:34;8.30;99.90
7518;DHT22;3800;48.922;9.444;2023-12-28T06:49:02;8.30;99.90
7518;DHT22;3800;48.922;9.444;2023-12-28T06:51:31;8.10;99.90
7518;DHT22;3800;48.922;9.444;2023-12-28T06:53:59;8.10;99.90
7518;DHT22;3800;48.922;9.444;2023-12-28T06:56:28;8.00;99.90
7518;DHT22;3800;48.922;9.444;2023-12-28T06:58:57;8.00;99.90
7518;DHT22;3800;48.922;9.444;2023-12-28T07:01:26;7.90;99.90
7518;DHT22;3800;48.922;9.444;2023-12-28T07:03:55;7.90;99.90
7518;DHT22;3800;48.922;9.444;2023-12-28T07:06:23;7.80;99.90
7518;DHT22;3800;48.922;9.444;2023-12-28T07:08:52;7.80;99.90
7518;DHT22;3800;48.922;9.444;2023-12-28T07:11:20;7.80;99.90
7518;DHT22;3800;48.922;9.444;2023-12-28T07:13:48;7.80;99.90
7518;DHT22;3800;48.922;9.444;2023-12-28T07:16:17;7.80;99.90
7518;DHT22;3800;48.922;9.444;2023-12-28T07:18:46;7.80;99.90
7518;DHT22;3800;48.922;9.444;2023-12-28T07:21:14;7.70;99.90
7518;DHT22;3800;48.922;9.444;2023-12-28T07:23:42;7.70;99.90
7518;DHT22;3800;48.922;9.444;2023-12-28T07:26:11;7.70;99.90
7518;DHT22;3800;48.922;9.444;2023-12-28T07:28:40;7.60;99.90
7518;DHT22;3800;48.922;9.444;2023-12-28T07:31:09;7.60;99.90
7518;DHT22;3800;48.922;9.444;2023-12-28T07:33:37;7.70;99.90
7518;DHT22;3800;48.922;9.444;2023-12-28T07:36:06;7.70;99.90
7518;DHT22;3800;48.922;9.444;2023-12-28T07:38:34;7.70;99.90
7518;DHT22;3800;48.922;9.444;2023-12-28T07:41:03;7.70;99.90
7518;DHT22;3800;48.922;9.444;2023-12-28T07:43:31;7.60;99.90
7518;DHT22;3800;48.922;9.444;2023-12-28T07:46:00;7.60;99.90
7518;DHT22;3800;48.922;9.444;2023-12-28T07:48:29;7.60;99.90
7518;DHT22;3800;48.922;9.444;2023-12-28T07:50:57;7.60;99.90
7518;DHT22;3800;48.922;9.444;2023-12-28T07:53:25;7.50;99.90
7518;DHT22;3800;48.922;9.444;2023-12-28T07:55:54;7.50;99.90
7518;DHT22;3800;48.922;9.444;2023-12-28T07:58:22;7.50;99.90
7518;DHT22;3800;48.922;9.444;2023-12-28T08:00:50;7.40;99.90
7518;DHT22;3800;48.922;9.444;2023-12-28T08:03:18;7.40;99.90
7518;DHT22;3800;48.922;9.444;2023-12-28T08:05:47;7.40;99.90
7518;DHT22;3800;48.922;9.444;2023-12-28T08:08:15;7.40;99.90
7518;DHT22;3800;48.922;9.444;2023-12-28T08:10:43;7.40;99.90
7518;DHT22;3800;48.922;9.444;2023-12-28T08:13:12;7.30;99.90
7518;DHT22;3800;48.922;9.444;2023-12-28T08:15:40;7.40;99.90
7518;DHT22;3800;48.922;9.444;2023-12-28T08:18:08;7.30;99.90
7518;DHT22;3800;48.922;9.444;2023-12-28T08:20:36;7.30;99.90
7518;DHT22;3800;48.922;9.444;2023-12-28T08:23:05;7.30;99.90
7518;DHT22;3800;48.922;9.444;2023-12-28T08:25:34;7.20;99.90
7518;DHT22;3800;48.922;9.444;2023-12-28T08:28:02;7.30;99.90
7518;DHT22;3800;48.922;9.444;2023-12-28T08:30:32;7.20;99.90
7518;DHT22;3800;48.922;9.444;2023-12-28T08:33:00;7.20;99.90
7518;DHT22;3800;48.922;9.444;2023-12-28T08:35:28;7.30;99.90
7518;DHT22;3800;48.922;9.444;2023-12-28T08:37:56;7.30;99.90
7518;DHT22;3800;48.922;9.444;2023-12-28T08:40:25;7.30;99.90
7518;DHT22;3800;48.922;9.444;2023-12-28T08:42:53;7.30;99.90
7518;DHT22;3800;48.922;9.444;2023-12-28T08:45:21;7.30;99.90
7518;DHT22;3800;48.922;9.444;2023-12-28T08:47:50;7.30;99.90
7518;DHT22;3800;48.922;9.444;2023-12-28T08:50:18;7.30;99.90
7518;DHT22;3800;48.922;9.444;2023-12-28T08:52:46;7.30;99.90
7518;DHT22;3800;48.922;9.444;2023-12-28T08:55:15;7.30;99.90
7518;DHT22;3800;48.922;9.444;2023-12-28T08:57:43;7.30;99.90
7518;DHT22;3800;48.922;9.444;2023-12-28T09:00:12;7.30;99.90
7518;DHT22;3800;48.922;9.444;2023-12-28T09:02:41;7.40;99.90
7518;DHT22;3800;48.922;9.444;2023-12-28T09:05:09;7.40;99.90
7518;DHT22;3800;48.922;9.444;2023-12-28T09:07:37;7.40;99.90
7518;DHT22;3800;48.922;9.444;2023-12-28T09:10:05;7.40;99.90
7518;DHT22;3800;48.922;9.444;2023-12-28T09:12:34;7.40;99.90
7518;DHT22;3800;48.922;9.444;2023-12-28T09:15:03;7.40;99.90
7518;DHT22;3800;48.922;9.444;2023-12-28T09:17:32;7.40;99.90
7518;DHT22;3800;48.922;9.444;2023-12-28T09:20:01;7.40;99.90
7518;DHT22;3800;48.922;9.444;2023-12-28T09:22:29;7.40;99.90
7518;DHT22;3800;48.922;9.444;2023-12-28T09:24:58;7.40;99.90
7518;DHT22;3800;48.922;9.444;2023-12-28T09:27:27;7.40;99.90
7518;DHT22;3800;48.922;9.444;2023-12-28T09:29:56;7.50;99.90
7518;DHT22;3800;48.922;9.444;2023-12-28T09:32:24;7.50;99.90
7518;DHT22;3800;48.922;9.444;2023-12-28T09:34:52;7.50;99.90
7518;DHT22;3800;48.922;9.444;2023-12-28T09:37:20;7.50;99.90
7518;DHT22;3800;48.922;9.444;2023-12-28T09:39:49;7.50;99.90
7518;DHT22;3800;48.922;9.444;2023-12-28T09:42:21;7.50;99.90
7518;DHT22;3800;48.922;9.444;2023-12-28T09:44:45;7.50;99.90
7518;DHT22;3800;48.922;9.444;2023-12-28T09:47:13;7.50;99.90
7518;DHT22;3800;48.922;9.444;2023-12-28T09:49:42;7.50;99.90
7518;DHT22;3800;48.922;9.444;2023-12-28T09:52:10;7.50;99.90
7518;DHT22;3800;48.922;9.444;2023-12-28T09:54:38;7.50;99.90
7518;DHT22;3800;48.922;9.444;2023-12-28T09:57:06;7.60;99.90
7518;DHT22;3800;48.922;9.444;2023-12-28T09:59:35;7.60;99.90
7518;DHT22;3800;48.922;9.444;2023-12-28T10:02:03;7.60;99.90
7518;DHT22;3800;48.922;9.444;2023-12-28T10:04:31;7.60;99.90
7518;DHT22;3800;48.922;9.444;2023-12-28T10:07:00;7.70;99.90
7518;DHT22;3800;48.922;9.444;2023-12-28T10:09:28;7.70;99.90
7518;DHT22;3800;48.922;9.444;2023-12-28T10:11:56;7.80;99.90
7518;DHT22;3800;48.922;9.444;2023-12-28T10:14:25;7.90;99.90
7518;DHT22;3800;48.922;9.444;2023-12-28T10:16:53;7.90;99.90
7518;DHT22;3800;48.922;9.444;2023-12-28T10:19:21;8.00;99.90
7518;DHT22;3800;48.922;9.444;2023-12-28T10:21:49;8.00;99.90
7518;DHT22;3800;48.922;9.444;2023-12-28T10:24:18;8.10;99.90
7518;DHT22;3800;48.922;9.444;2023-12-28T10:26:46;8.00;99.90
7518;DHT22;3800;48.922;9.444;2023-12-28T10:29:14;8.00;99.90
7518;DHT22;3800;48.922;9.444;2023-12-28T10:31:43;8.00;99.90
7518;DHT22;3800;48.922;9.444;2023-12-28T10:34:12;8.00;99.90
7518;DHT22;3800;48.922;9.444;2023-12-28T10:36:40;7.90;99.90
7518;DHT22;3800;48.922;9.444;2023-12-28T10:39:09;7.90;99.90
7518;DHT22;3800;48.922;9.444;2023-12-28T10:41:37;7.90;99.90
7518;DHT22;3800;48.922;9.444;2023-12-28T10:44:06;8.00;99.90
7518;DHT22;3800;48.922;9.444;2023-12-28T10:46:35;7.90;99.90
7518;DHT22;3800;48.922;9.444;2023-12-28T10:49:10;7.90;99.90
7518;DHT22;3800;48.922;9.444;2023-12-28T10:51:41;7.90;99.90
7518;DHT22;3800;48.922;9.444;2023-12-28T10:54:11;7.90;99.90
7518;DHT22;3800;48.922;9.444;2023-12-28T10:56:41;7.90;99.90
7518;DHT22;3800;48.922;9.444;2023-12-28T10:59:35;7.90;99.90
7518;DHT22;3800;48.922;9.444;2023-12-28T11:02:03;7.90;99.90
7518;DHT22;3800;48.922;9.444;2023-12-28T11:04:42;7.90;99.90
7518;DHT22;3800;48.922;9.444;2023-12-28T11:07:13;8.00;99.90
7518;DHT22;3800;48.922;9.444;2023-12-28T11:09:41;8.00;99.90
7518;DHT22;3800;48.922;9.444;2023-12-28T11:12:09;8.00;99.90
7518;DHT22;3800;48.922;9.444;2023-12-28T11:14:41;8.00;99.90
7518;DHT22;3800;48.922;9.444;2023-12-28T11:17:09;8.00;99.90
7518;DHT22;3800;48.922;9.444;2023-12-28T11:19:38;8.10;99.90
7518;DHT22;3800;48.922;9.444;2023-12-28T11:22:06;8.10;99.90
7518;DHT22;3800;48.922;9.444;2023-12-28T11:24:35;8.10;99.90
7518;DHT22;3800;48.922;9.444;2023-12-28T11:27:03;8.10;99.90
7518;DHT22;3800;48.922;9.444;2023-12-28T11:29:32;8.20;99.90
7518;DHT22;3800;48.922;9.444;2023-12-28T11:32:01;8.20;99.90
7518;DHT22;3800;48.922;9.444;2023-12-28T11:34:30;8.20;99.90
7518;DHT22;3800;48.922;9.444;2023-12-28T11:36:59;8.20;99.90
7518;DHT22;3800;48.922;9.444;2023-12-28T11:39:30;8.20;99.90
7518;DHT22;3800;48.922;9.444;2023-12-28T11:42:01;8.20;99.90
7518;DHT22;3800;48.922;9.444;2023-12-28T11:44:38;8.20;99.90
7518;DHT22;3800;48.922;9.444;2023-12-28T11:47:15;8.10;99.90
7518;DHT22;3800;48.922;9.444;2023-12-28T11:49:43;8.10;99.90
7518;DHT22;3800;48.922;9.444;2023-12-28T11:52:11;8.10;99.90
7518;DHT22;3800;48.922;9.444;2023-12-28T11:54:43;8.10;99.90
7518;DHT22;3800;48.922;9.444;2023-12-28T11:57:07;8.20;99.90
7518;DHT22;3800;48.922;9.444;2023-12-28T11:59:36;8.10;99.90
7518;DHT22;3800;48.922;9.444;2023-12-28T12:02:04;8.20;99.90
7518;DHT22;3800;48.922;9.444;2023-12-28T12:04:33;8.10;99.90
7518;DHT22;3800;48.922;9.444;2023-12-28T12:07:01;8.20;99.90
7518;DHT22;3800;48.922;9.444;2023-12-28T12:09:30;8.20;99.90
7518;DHT22;3800;48.922;9.444;2023-12-28T12:12:01;8.20;99.90
7518;DHT22;3800;48.922;9.444;2023-12-28T12:14:30;8.20;99.90
7518;DHT22;3800;48.922;9.444;2023-12-28T12:16:58;8.20;99.90
7518;DHT22;3800;48.922;9.444;2023-12-28T12:19:26;8.30;99.90
7518;DHT22;3800;48.922;9.444;2023-12-28T12:21:55;8.30;99.90
7518;DHT22;3800;48.922;9.444;2023-12-28T12:24:24;8.40;99.90
7518;DHT22;3800;48.922;9.444;2023-12-28T12:26:53;8.40;99.90
7518;DHT22;3800;48.922;9.444;2023-12-28T12:29:21;8.40;99.90
7518;DHT22;3800;48.922;9.444;2023-12-28T12:31:50;8.50;99.90
7518;DHT22;3800;48.922;9.444;2023-12-28T12:34:21;8.50;99.90
7518;DHT22;3800;48.922;9.444;2023-12-28T12:36:50;8.50;99.90
7518;DHT22;3800;48.922;9.444;2023-12-28T12:39:18;8.60;99.90
7518;DHT22;3800;48.922;9.444;2023-12-28T12:41:47;8.60;99.90
7518;DHT22;3800;48.922;9.444;2023-12-28T12:44:16;8.60;99.90
7518;DHT22;3800;48.922;9.444;2023-12-28T12:46:44;8.60;99.90
7518;DHT22;3800;48.922;9.444;2023-12-28T12:49:13;8.60;99.90
7518;DHT22;3800;48.922;9.444;2023-12-28T12:51:44;8.60;99.90
7518;DHT22;3800;48.922;9.444;2023-12-28T12:54:12;8.60;99.90
7518;DHT22;3800;48.922;9.444;2023-12-28T12:56:40;8.60;99.90
7518;DHT22;3800;48.922;9.444;2023-12-28T12:59:09;8.60;99.90
7518;DHT22;3800;48.922;9.444;2023-12-28T13:01:37;8.70;99.90
7518;DHT22;3800;48.922;9.444;2023-12-28T13:04:06;8.70;99.90
7518;DHT22;3800;48.922;9.444;2023-12-28T13:06:34;8.70;99.90
7518;DHT22;3800;48.922;9.444;2023-12-28T13:09:03;8.70;99.90
7518;DHT22;3800;48.922;9.444;2023-12-28T13:11:33;8.70;99.90
7518;DHT22;3800;48.922;9.444;2023-12-28T13:14:01;8.70;99.90
7518;DHT22;3800;48.922;9.444;2023-12-28T13:16:29;8.70;99.90
7518;DHT22;3800;48.922;9.444;2023-12-28T13:18:57;8.70;99.90
7518;DHT22;3800;48.922;9.444;2023-12-28T13:21:26;8.80;99.90
7518;DHT22;3800;48.922;9.444;2023-12-28T13:23:54;8.70;99.90
7518;DHT22;3800;48.922;9.444;2023-12-28T13:26:23;8.80;99.90
7518;DHT22;3800;48.922;9.444;2023-12-28T13:28:51;8.80;99.90
7518;DHT22;3800;48.922;9.444;2023-12-28T13:31:21;8.80;99.90
7518;DHT22;3800;48.922;9.444;2023-12-28T13:33:50;8.70;99.90
7518;DHT22;3800;48.922;9.444;2023-12-28T13:36:18;8.70;99.90
7518;DHT22;3800;48.922;9.444;2023-12-28T13:38:46;8.80;99.90
7518;DHT22;3800;48.922;9.444;2023-12-28T13:41:16;8.80;99.90
7518;DHT22;3800;48.922;9.444;2023-12-28T13:43:45;8.80;99.90
7518;DHT22;3800;48.922;9.444;2023-12-28T13:46:14;8.80;99.90
7518;DHT22;3800;48.922;9.444;2023-12-28T13:48:42;8.80;99.90
7518;DHT22;3800;48.922;9.444;2023-12-28T13:51:10;8.90;99.90
7518;DHT22;3800;48.922;9.444;2023-12-28T13:53:39;8.90;99.90
7518;DHT22;3800;48.922;9.444;2023-12-28T13:56:07;8.90;99.90
7518;DHT22;3800;48.922;9.444;2023-12-28T13:58:36;8.90;99.90
7518;DHT22;3800;48.922;9.444;2023-12-28T14:01:04;8.90;99.90
7518;DHT22;3800;48.922;9.444;2023-12-28T14:03:33;8.90;99.90
7518;DHT22;3800;48.922;9.444;2023-12-28T14:06:02;8.90;99.90
7518;DHT22;3800;48.922;9.444;2023-12-28T14:08:31;8.90;99.90
7518;DHT22;3800;48.922;9.444;2023-12-28T14:10:59;8.90;99.90
7518;DHT22;3800;48.922;9.444;2023-12-28T14:13:27;8.90;99.90
7518;DHT22;3800;48.922;9.444;2023-12-28T14:15:56;8.90;99.90
7518;DHT22;3800;48.922;9.444;2023-12-28T14:18:25;8.80;99.90
7518;DHT22;3800;48.922;9.444;2023-12-28T14:20:54;8.80;99.90
7518;DHT22;3800;48.922;9.444;2023-12-28T14:23:23;8.80;99.90
7518;DHT22;3800;48.922;9.444;2023-12-28T14:25:52;8.80;99.90
7518;DHT22;3800;48.922;9.444;2023-12-28T14:28:21;8.80;99.90
7518;DHT22;3800;48.922;9.444;2023-12-28T14:30:52;8.80;99.90
7518;DHT22;3800;48.922;9.444;2023-12-28T14:33:21;8.80;99.90
7518;DHT22;3800;48.922;9.444;2023-12-28T14:35:52;8.90;99.90
7518;DHT22;3800;48.922;9.444;2023-12-28T14:38:21;8.80;99.90
7518;DHT22;3800;48.922;9.444;2023-12-28T14:40:50;8.80;99.90
7518;DHT22;3800;48.922;9.444;2023-12-28T14:43:19;8.80;99.90
7518;DHT22;3800;48.922;9.444;2023-12-28T14:45:47;8.80;99.90
7518;DHT22;3800;48.922;9.444;2023-12-28T14:48:16;8.80;99.90
7518;DHT22;3800;48.922;9.444;2023-12-28T14:50:44;8.80;99.90
7518;DHT22;3800;48.922;9.444;2023-12-28T14:53:13;8.80;99.90
7518;DHT22;3800;48.922;9.444;2023-12-28T14:55:42;8.80;99.90
7518;DHT22;3800;48.922;9.444;2023-12-28T14:58:10;8.80;99.90
7518;DHT22;3800;48.922;9.444;2023-12-28T15:00:38;8.80;99.90
7518;DHT22;3800;48.922;9.444;2023-12-28T15:03:07;8.80;99.90
7518;DHT22;3800;48.922;9.444;2023-12-28T15:05:36;8.80;99.90
7518;DHT22;3800;48.922;9.444;2023-12-28T15:08:04;8.80;99.90
7518;DHT22;3800;48.922;9.444;2023-12-28T15:10:33;8.90;99.90
7518;DHT22;3800;48.922;9.444;2023-12-28T15:13:01;8.90;99.90
7518;DHT22;3800;48.922;9.444;2023-12-28T15:15:31;8.90;99.90
7518;DHT22;3800;48.922;9.444;2023-12-28T15:18:00;8.90;99.90
7518;DHT22;3800;48.922;9.444;2023-12-28T15:20:29;8.90;99.90
7518;DHT22;3800;48.922;9.444;2023-12-28T15:22:58;8.90;99.90
7518;DHT22;3800;48.922;9.444;2023-12-28T15:25:26;8.90;99.90
7518;DHT22;3800;48.922;9.444;2023-12-28T15:27:55;8.80;99.90
7518;DHT22;3800;48.922;9.444;2023-12-28T15:30:23;8.80;99.90
7518;DHT22;3800;48.922;9.444;2023-12-28T15:32:52;8.70;99.90
7518;DHT22;3800;48.922;9.444;2023-12-28T15:35:21;8.70;99.90
7518;DHT22;3800;48.922;9.444;2023-12-28T15:37:49;8.70;99.90
7518;DHT22;3800;48.922;9.444;2023-12-28T15:40:17;8.70;99.90
7518;DHT22;3800;48.922;9.444;2023-12-28T15:42:46;8.70;99.90
7518;DHT22;3800;48.922;9.444;2023-12-28T15:45:15;8.60;99.90
7518;DHT22;3800;48.922;9.444;2023-12-28T15:47:43;8.70;99.90
7518;DHT22;3800;48.922;9.444;2023-12-28T15:50:11;8.70;99.90
7518;DHT22;3800;48.922;9.444;2023-12-28T15:52:40;8.70;99.90
7518;DHT22;3800;48.922;9.444;2023-12-28T15:55:08;8.70;99.90
7518;DHT22;3800;48.922;9.444;2023-12-28T15:57:36;8.70;99.90
7518;DHT22;3800;48.922;9.444;2023-12-28T16:00:05;8.70;99.90
7518;DHT22;3800;48.922;9.444;2023-12-28T16:02:34;8.70;99.90
7518;DHT22;3800;48.922;9.444;2023-12-28T16:05:02;8.70;99.90
7518;DHT22;3800;48.922;9.444;2023-12-28T16:07:32;8.70;99.90
7518;DHT22;3800;48.922;9.444;2023-12-28T16:10:00;8.70;99.90
7518;DHT22;3800;48.922;9.444;2023-12-28T16:12:28;8.70;99.90
7518;DHT22;3800;48.922;9.444;2023-12-28T16:14:57;8.70;99.90
7518;DHT22;3800;48.922;9.444;2023-12-28T16:17:25;8.70;99.90
7518;DHT22;3800;48.922;9.444;2023-12-28T16:19:54;8.70;99.90
7518;DHT22;3800;48.922;9.444;2023-12-28T16:22:23;8.70;99.90
7518;DHT22;3800;48.922;9.444;2023-12-28T16:24:51;8.70;99.90